Time;durP1;ratioP1;P1;durP2;ratioP2;P2;SDS_P1;SDS_P2;PMS_P1;PMS_P2;Temp;Humidity;BMP_temperature;BMP_pressure;BME280_temperature;BME280_humidity;BME280_pressure;Samples;Min_cycle;Max_cycle;Signal;HPM_P1;HPM_P2
2022/11/30 00:01:18;;;;;;;10.67;7.63;;;;;;;;;;5053411;28;20221;-28
2022/11/30 00:03:45;;;;;;;10.03;7.40;;;;;;;;;;5065849;28;20208;-26
2022/11/30 00:06:13;;;;;;;10.60;6.93;;;;;;;;;;5064175;28;20205;-27
2022/11/30 00:08:42;;;;;;;10.90;7.17;;;;;;;;;;5069694;28;20205;-28
2022/11/30 00:11:10;;;;;;;12.00;8.03;;;;;;;;;;5063428;28;20232;-32
2022/11/30 00:13:37;;;;;;;14.13;7.50;;;;;;;;;;5068342;28;20225;-29
2022/11/30 00:16:04;;;;;;;10.80;6.63;;;;;;;;;;5057062;28;20208;-26
2022/11/30 00:18:31;;;;;;;11.27;7.63;;;;;;;;;;5059692;28;20202;-26
2022/11/30 00:20:59;;;;;;;11.03;7.13;;;;;;;;;;5052608;28;20230;-26
2022/11/30 00:23:27;;;;;;;9.63;6.97;;;;;;;;;;5054570;28;20202;-28
2022/11/30 00:25:55;;;;;;;11.67;7.50;;;;;;;;;;5066082;28;20205;-24
2022/11/30 00:28:22;;;;;;;10.90;8.17;;;;;;;;;;5059400;28;20212;-27
2022/11/30 00:30:57;;;;;;;11.77;7.57;;;;;;;;;;5057975;28;20249;-27
2022/11/30 00:33:24;;;;;;;10.73;6.77;;;;;;;;;;5061772;28;20225;-29
2022/11/30 00:35:56;;;;;;;12.77;7.90;;;;;;;;;;5061063;28;20224;-27
2022/11/30 00:38:23;;;;;;;9.57;7.17;;;;;;;;;;5069536;28;20213;-32
2022/11/30 00:40:50;;;;;;;10.13;6.20;;;;;;;;;;5061940;28;20230;-31
2022/11/30 00:43:19;;;;;;;8.83;6.70;;;;;;;;;;5068002;28;20203;-30
2022/11/30 00:45:46;;;;;;;10.87;6.60;;;;;;;;;;5064527;28;20215;-26
2022/11/30 00:48:13;;;;;;;9.80;6.67;;;;;;;;;;5070764;28;20201;-30
2022/11/30 00:50:40;;;;;;;10.27;6.53;;;;;;;;;;5070825;28;20224;-27
2022/11/30 00:53:08;;;;;;;10.27;6.50;;;;;;;;;;5066073;28;20213;-31
2022/11/30 00:55:35;;;;;;;8.60;6.23;;;;;;;;;;5061827;28;20217;-28
2022/11/30 00:58:02;;;;;;;9.93;6.43;;;;;;;;;;5063399;28;20205;-27
2022/11/30 01:00:30;;;;;;;12.27;6.70;;;;;;;;;;5061039;28;20221;-25
2022/11/30 01:02:58;;;;;;;8.63;6.70;;;;;;;;;;5062622;28;20212;-31
2022/11/30 01:05:25;;;;;;;8.57;6.20;;;;;;;;;;5068802;28;20205;-28
2022/11/30 01:07:52;;;;;;;9.07;6.40;;;;;;;;;;5321710;22;20235;-26
2022/11/30 01:10:21;;;;;;;9.67;6.67;;;;;;;;;;5061230;28;20221;-27
2022/11/30 01:12:48;;;;;;;10.03;7.70;;;;;;;;;;5069832;28;20221;-27
2022/11/30 01:15:17;;;;;;;10.67;7.10;;;;;;;;;;5066549;28;20209;-29
2022/11/30 01:17:45;;;;;;;10.37;7.47;;;;;;;;;;5063101;28;20205;-29
2022/11/30 01:20:13;;;;;;;9.80;6.93;;;;;;;;;;5070568;28;20205;-30
2022/11/30 01:22:40;;;;;;;12.23;6.93;;;;;;;;;;5070065;28;20292;-28
2022/11/30 01:25:07;;;;;;;8.93;6.90;;;;;;;;;;5066880;28;20209;-27
2022/11/30 01:27:34;;;;;;;8.80;6.17;;;;;;;;;;5062623;28;20205;-28
2022/11/30 01:30:01;;;;;;;10.63;7.07;;;;;;;;;;5063711;28;20512;-28
2022/11/30 01:32:29;;;;;;;10.33;6.93;;;;;;;;;;5062717;28;20229;-30
2022/11/30 01:34:57;;;;;;;8.77;6.43;;;;;;;;;;5070124;28;20587;-29
2022/11/30 01:37:24;;;;;;;9.30;6.50;;;;;;;;;;5063199;28;20199;-27
2022/11/30 01:39:51;;;;;;;7.67;6.33;;;;;;;;;;5060550;28;20217;-27
2022/11/30 01:42:20;;;;;;;9.50;6.57;;;;;;;;;;5069940;28;20217;-28
2022/11/30 01:44:52;;;;;;;9.47;6.73;;;;;;;;;;5066531;28;20284;-26
2022/11/30 01:47:21;;;;;;;9.77;6.60;;;;;;;;;;5065386;28;20213;-28
2022/11/30 01:49:51;;;;;;;8.87;6.80;;;;;;;;;;5069926;28;20224;-29
2022/11/30 01:52:21;;;;;;;8.70;6.53;;;;;;;;;;5070070;28;20266;-29
2022/11/30 01:54:51;;;;;;;8.53;6.30;;;;;;;;;;5058806;28;20206;-27
2022/11/30 01:57:22;;;;;;;7.80;6.00;;;;;;;;;;5065863;28;20232;-27
2022/11/30 01:59:50;;;;;;;10.33;6.47;;;;;;;;;;5064479;28;20202;-27
2022/11/30 02:02:19;;;;;;;9.77;6.83;;;;;;;;;;5062520;28;20220;-31
2022/11/30 02:04:46;;;;;;;10.37;6.83;;;;;;;;;;5065506;28;20294;-28
2022/11/30 02:07:13;;;;;;;9.30;6.60;;;;;;;;;;5070151;28;20205;-29
2022/11/30 02:09:43;;;;;;;8.83;5.93;;;;;;;;;;5059038;28;20197;-26
2022/11/30 02:12:18;;;;;;;10.50;6.57;;;;;;;;;;5061888;28;20278;-29
2022/11/30 02:14:48;;;;;;;11.53;7.13;;;;;;;;;;5063750;28;20202;-28
2022/11/30 02:17:18;;;;;;;10.67;7.47;;;;;;;;;;5062653;28;20211;-29
2022/11/30 02:19:58;;;;;;;11.10;7.27;;;;;;;;;;5069644;28;20202;-30
2022/11/30 02:22:35;;;;;;;10.00;7.23;;;;;;;;;;5068211;28;20201;-26
2022/11/30 02:25:09;;;;;;;9.23;6.73;;;;;;;;;;5068626;28;20201;-29
2022/11/30 02:27:45;;;;;;;9.30;6.67;;;;;;;;;;5070114;28;20201;-26
2022/11/30 02:30:15;;;;;;;9.40;6.50;;;;;;;;;;5065701;28;20293;-28
2022/11/30 02:32:46;;;;;;;9.30;6.67;;;;;;;;;;5065741;28;20222;-27
2022/11/30 02:35:14;;;;;;;9.50;6.77;;;;;;;;;;5070218;28;20193;-30
2022/11/30 02:37:42;;;;;;;9.47;7.17;;;;;;;;;;5062875;28;20201;-27
2022/11/30 02:40:10;;;;;;;9.77;5.80;;;;;;;;;;5056434;28;20197;-29
2022/11/30 02:42:37;;;;;;;8.97;6.27;;;;;;;;;;5068852;28;20315;-30
2022/11/30 02:45:06;;;;;;;9.07;6.03;;;;;;;;;;5054758;28;20201;-27
2022/11/30 02:47:37;;;;;;;8.40;6.07;;;;;;;;;;5069394;28;20201;-28
2022/11/30 02:50:09;;;;;;;9.90;6.47;;;;;;;;;;5069281;28;20216;-29
2022/11/30 02:52:36;;;;;;;8.50;5.90;;;;;;;;;;5069310;28;20205;-29
2022/11/30 02:55:05;;;;;;;8.30;5.67;;;;;;;;;;5056298;28;20194;-29
2022/11/30 02:57:32;;;;;;;10.87;6.70;;;;;;;;;;5066870;28;20202;-29
2022/11/30 02:59:59;;;;;;;7.67;6.00;;;;;;;;;;5062664;28;20208;-29
2022/11/30 03:02:27;;;;;;;8.87;5.53;;;;;;;;;;5068584;28;20235;-29
2022/11/30 03:04:55;;;;;;;8.33;5.90;;;;;;;;;;5068971;28;20205;-27
2022/11/30 03:07:22;;;;;;;8.07;5.90;;;;;;;;;;5069829;28;20208;-27
2022/11/30 03:09:50;;;;;;;7.93;6.23;;;;;;;;;;5064694;28;20288;-28
2022/11/30 03:12:17;;;;;;;9.63;6.30;;;;;;;;;;5063698;28;20264;-28
2022/11/30 03:14:44;;;;;;;7.43;5.77;;;;;;;;;;5063012;28;20224;-27
2022/11/30 03:17:11;;;;;;;7.77;5.37;;;;;;;;;;5066084;28;20205;-29
2022/11/30 03:19:38;;;;;;;6.93;4.90;;;;;;;;;;5071972;28;20292;-29
2022/11/30 03:22:07;;;;;;;6.90;5.20;;;;;;;;;;5073423;28;20228;-29
2022/11/30 03:24:34;;;;;;;7.43;5.43;;;;;;;;;;5061995;28;20225;-28
2022/11/30 03:27:01;;;;;;;5.93;5.07;;;;;;;;;;5070683;28;20228;-28
2022/11/30 03:29:28;;;;;;;7.70;5.40;;;;;;;;;;5070201;28;20301;-26
2022/11/30 03:31:55;;;;;;;6.47;4.83;;;;;;;;;;5071849;28;20226;-26
2022/11/30 03:34:25;;;;;;;7.93;5.07;;;;;;;;;;5072102;28;20583;-28
2022/11/30 03:36:52;;;;;;;8.43;5.53;;;;;;;;;;5072987;28;20292;-27
2022/11/30 03:39:21;;;;;;;7.30;5.90;;;;;;;;;;5068951;28;20213;-28
2022/11/30 03:41:48;;;;;;;6.90;5.33;;;;;;;;;;5064483;28;20231;-29
2022/11/30 03:44:17;;;;;;;6.70;5.07;;;;;;;;;;5069430;28;20204;-28
2022/11/30 03:46:44;;;;;;;8.13;5.50;;;;;;;;;;5065499;28;20202;-27
2022/11/30 03:49:11;;;;;;;6.10;4.83;;;;;;;;;;5072452;28;20197;-28
2022/11/30 03:51:39;;;;;;;10.13;5.77;;;;;;;;;;5072888;28;20229;-29
2022/11/30 03:54:06;;;;;;;6.03;5.00;;;;;;;;;;5068287;28;20225;-27
2022/11/30 03:56:34;;;;;;;7.47;5.20;;;;;;;;;;5070836;28;20563;-27
2022/11/30 03:59:01;;;;;;;7.07;4.93;;;;;;;;;;5072237;28;20205;-27
2022/11/30 04:01:29;;;;;;;7.90;4.80;;;;;;;;;;5063079;28;20220;-28
2022/11/30 04:03:56;;;;;;;6.97;5.17;;;;;;;;;;5069585;28;20201;-30
2022/11/30 04:06:23;;;;;;;9.07;5.57;;;;;;;;;;5072318;28;20198;-30
2022/11/30 04:08:50;;;;;;;8.20;5.50;;;;;;;;;;5065845;28;20212;-27
2022/11/30 04:11:18;;;;;;;8.00;6.20;;;;;;;;;;5065468;28;20229;-27
2022/11/30 04:13:46;;;;;;;7.47;5.07;;;;;;;;;;5071113;28;20682;-28
2022/11/30 04:16:13;;;;;;;7.23;5.40;;;;;;;;;;5063633;28;20212;-27
2022/11/30 04:18:41;;;;;;;7.57;5.27;;;;;;;;;;5067955;28;20400;-29
2022/11/30 04:21:08;;;;;;;8.90;5.57;;;;;;;;;;5052159;28;20257;-28
2022/11/30 04:23:36;;;;;;;6.17;5.10;;;;;;;;;;5058869;28;20284;-29
2022/11/30 04:26:04;;;;;;;6.00;4.50;;;;;;;;;;5071279;28;20204;-28
2022/11/30 04:28:31;;;;;;;7.87;5.23;;;;;;;;;;5071348;28;20408;-27
2022/11/30 04:31:01;;;;;;;6.73;5.10;;;;;;;;;;5065040;28;20296;-27
2022/11/30 04:33:28;;;;;;;7.63;5.00;;;;;;;;;;5070949;28;20686;-27
2022/11/30 04:35:56;;;;;;;7.77;5.20;;;;;;;;;;5071935;28;20289;-27
2022/11/30 04:38:24;;;;;;;7.03;5.00;;;;;;;;;;5072223;28;20577;-28
2022/11/30 04:40:52;;;;;;;7.67;5.37;;;;;;;;;;5060917;28;20225;-27
2022/11/30 04:43:19;;;;;;;6.63;5.10;;;;;;;;;;5064237;28;20669;-29
2022/11/30 04:45:46;;;;;;;7.63;5.70;;;;;;;;;;5061047;28;20229;-29
2022/11/30 04:48:15;;;;;;;7.27;5.17;;;;;;;;;;5067465;28;20206;-27
2022/11/30 04:50:43;;;;;;;6.23;4.90;;;;;;;;;;5070470;28;20229;-27
2022/11/30 04:53:10;;;;;;;6.50;4.70;;;;;;;;;;5062274;28;20203;-29
2022/11/30 04:55:38;;;;;;;7.73;5.37;;;;;;;;;;5065178;28;20452;-27
2022/11/30 04:58:05;;;;;;;6.77;5.30;;;;;;;;;;5070043;28;20206;-27
2022/11/30 05:00:32;;;;;;;7.77;4.60;;;;;;;;;;5067223;28;20225;-28
2022/11/30 05:02:59;;;;;;;6.03;4.53;;;;;;;;;;5067268;28;20219;-27
2022/11/30 05:05:28;;;;;;;8.47;4.97;;;;;;;;;;5070478;28;20202;-27
2022/11/30 05:07:56;;;;;;;5.87;4.87;;;;;;;;;;5068455;28;20219;-28
2022/11/30 05:10:24;;;;;;;6.30;4.60;;;;;;;;;;5058767;28;20218;-28
2022/11/30 05:12:51;;;;;;;5.80;4.77;;;;;;;;;;5070718;28;20205;-27
2022/11/30 05:15:18;;;;;;;6.37;4.70;;;;;;;;;;5065498;28;20217;-29
2022/11/30 05:17:45;;;;;;;7.40;5.37;;;;;;;;;;5069330;28;20206;-26
2022/11/30 05:20:12;;;;;;;9.10;5.50;;;;;;;;;;5070412;28;20197;-28
2022/11/30 05:22:41;;;;;;;11.97;5.70;;;;;;;;;;5066687;28;20209;-28
2022/11/30 05:25:08;;;;;;;11.07;7.20;;;;;;;;;;5065664;28;20205;-28
2022/11/30 05:27:36;;;;;;;10.67;6.00;;;;;;;;;;5070311;28;20205;-27
2022/11/30 05:30:03;;;;;;;9.43;5.50;;;;;;;;;;5063252;28;20211;-29
2022/11/30 05:32:30;;;;;;;15.60;9.07;;;;;;;;;;5065905;28;20205;-28
2022/11/30 05:34:58;;;;;;;13.57;6.93;;;;;;;;;;5069591;28;20225;-29
2022/11/30 05:37:25;;;;;;;14.07;8.67;;;;;;;;;;5066007;28;20205;-28
2022/11/30 05:39:54;;;;;;;15.47;9.23;;;;;;;;;;5062797;28;20213;-28
2022/11/30 05:42:21;;;;;;;13.20;8.10;;;;;;;;;;5075116;28;20193;-29
2022/11/30 05:44:48;;;;;;;13.37;8.93;;;;;;;;;;5080066;28;20197;-28
2022/11/30 05:47:16;;;;;;;15.53;8.77;;;;;;;;;;5078483;28;20200;-28
2022/11/30 05:49:43;;;;;;;15.87;9.43;;;;;;;;;;5079740;28;20225;-27
2022/11/30 05:52:10;;;;;;;12.37;8.43;;;;;;;;;;5063874;28;20225;-29
2022/11/30 05:54:37;;;;;;;15.23;9.03;;;;;;;;;;5059638;28;20221;-32
2022/11/30 05:57:06;;;;;;;16.17;10.07;;;;;;;;;;5070520;28;20197;-27
2022/11/30 05:59:33;;;;;;;17.77;10.70;;;;;;;;;;5066831;28;20288;-29
2022/11/30 06:02:00;;;;;;;18.13;10.80;;;;;;;;;;5066169;28;20225;-28
2022/11/30 06:04:27;;;;;;;17.00;9.83;;;;;;;;;;5072455;28;20276;-28
2022/11/30 06:06:55;;;;;;;17.17;9.97;;;;;;;;;;5070591;28;20292;-29
2022/11/30 06:09:22;;;;;;;18.13;11.30;;;;;;;;;;5061338;28;20193;-28
2022/11/30 06:11:49;;;;;;;18.50;9.57;;;;;;;;;;5069114;28;20225;-27
2022/11/30 06:14:19;;;;;;;15.27;8.67;;;;;;;;;;5069701;28;20247;-26
2022/11/30 06:16:46;;;;;;;20.70;11.87;;;;;;;;;;5070195;28;20280;-26
2022/11/30 06:19:13;;;;;;;16.57;10.20;;;;;;;;;;5072508;28;20199;-28
2022/11/30 06:21:40;;;;;;;21.97;11.37;;;;;;;;;;5058705;28;20596;-26
2022/11/30 06:24:08;;;;;;;18.80;11.00;;;;;;;;;;5062143;28;20831;-26
2022/11/30 06:26:36;;;;;;;22.10;11.03;;;;;;;;;;5067100;28;20202;-28
2022/11/30 06:29:03;;;;;;;19.23;11.73;;;;;;;;;;5072227;28;20208;-26
2022/11/30 06:31:32;;;;;;;19.90;11.80;;;;;;;;;;5065044;28;20229;-26
2022/11/30 06:33:59;;;;;;;16.57;10.43;;;;;;;;;;5065899;28;20267;-25
2022/11/30 06:36:27;;;;;;;16.63;9.80;;;;;;;;;;5072252;28;20201;-27
2022/11/30 06:38:55;;;;;;;20.37;11.70;;;;;;;;;;5076046;28;20199;-27
2022/11/30 06:41:22;;;;;;;19.87;12.03;;;;;;;;;;5076730;28;20432;-26
2022/11/30 06:43:49;;;;;;;19.57;11.93;;;;;;;;;;5072616;28;20204;-25
2022/11/30 06:46:16;;;;;;;20.77;11.97;;;;;;;;;;5067160;28;20197;-27
2022/11/30 06:48:48;;;;;;;20.70;12.03;;;;;;;;;;5069175;28;20197;-27
2022/11/30 06:51:15;;;;;;;25.30;12.60;;;;;;;;;;5073193;28;20225;-27
2022/11/30 06:53:43;;;;;;;19.63;11.83;;;;;;;;;;5077669;28;20197;-25
2022/11/30 06:56:10;;;;;;;19.63;11.70;;;;;;;;;;5060245;28;20201;-27
2022/11/30 06:58:37;;;;;;;25.07;13.53;;;;;;;;;;5071632;28;20311;-25
2022/11/30 07:01:05;;;;;;;21.93;13.20;;;;;;;;;;5066132;28;20289;-27
2022/11/30 07:03:32;;;;;;;22.30;12.70;;;;;;;;;;5072588;28;20289;-27
2022/11/30 07:06:00;;;;;;;21.63;13.13;;;;;;;;;;5075697;28;20320;-26
2022/11/30 07:08:27;;;;;;;18.97;11.53;;;;;;;;;;5139839;22;20227;-26
2022/11/30 07:10:55;;;;;;;21.83;13.37;;;;;;;;;;5016705;28;20231;-26
2022/11/30 07:13:22;;;;;;;20.20;12.23;;;;;;;;;;5015784;28;20206;-25
2022/11/30 07:15:49;;;;;;;20.97;11.80;;;;;;;;;;5015938;28;20223;-26
2022/11/30 07:18:16;;;;;;;19.03;11.70;;;;;;;;;;5015454;28;20203;-28
2022/11/30 07:20:43;;;;;;;19.83;12.43;;;;;;;;;;5015083;28;20461;-24
2022/11/30 07:26:09;;;;;;;19.27;12.33;;;;;;;;;;5023675;28;20249;-26
2022/11/30 07:28:37;;;;;;;20.57;12.53;;;;;;;;;;5015043;28;20256;-26
2022/11/30 07:31:13;;;;;;;22.00;12.53;;;;;;;;;;5013327;28;20229;-30
2022/11/30 07:33:41;;;;;;;21.13;12.17;;;;;;;;;;5014812;28;20210;-27
2022/11/30 07:36:08;;;;;;;21.83;12.40;;;;;;;;;;4996182;28;20208;-26
2022/11/30 07:38:37;;;;;;;19.87;12.37;;;;;;;;;;5006831;28;20207;-30
2022/11/30 07:41:04;;;;;;;23.13;13.77;;;;;;;;;;5018126;28;20230;-25
2022/11/30 07:43:31;;;;;;;22.93;12.80;;;;;;;;;;5014560;28;20221;-27
2022/11/30 07:45:59;;;;;;;20.73;11.73;;;;;;;;;;5015360;28;20206;-29
2022/11/30 07:48:26;;;;;;;22.63;13.20;;;;;;;;;;5018418;28;20215;-25
2022/11/30 07:50:53;;;;;;;22.70;12.70;;;;;;;;;;5014634;28;20226;-28
2022/11/30 07:53:20;;;;;;;23.17;12.83;;;;;;;;;;5014207;28;20204;-31
2022/11/30 07:55:49;;;;;;;24.93;13.43;;;;;;;;;;5023535;28;20224;-28
2022/11/30 07:58:16;;;;;;;24.53;12.90;;;;;;;;;;5014033;28;20207;-28
2022/11/30 08:00:43;;;;;;;22.27;13.83;;;;;;;;;;5011622;28;20623;-26
2022/11/30 08:03:10;;;;;;;20.37;12.57;;;;;;;;;;5017710;28;20210;-29
2022/11/30 08:05:37;;;;;;;20.23;12.43;;;;;;;;;;5014383;28;20199;-27
2022/11/30 08:08:04;;;;;;;21.07;12.90;;;;;;;;;;5015045;28;20219;-25
2022/11/30 08:10:31;;;;;;;20.70;12.70;;;;;;;;;;5013080;28;20223;-28
2022/11/30 08:13:00;;;;;;;21.77;12.47;;;;;;;;;;5013320;28;20298;-26
2022/11/30 08:15:27;;;;;;;20.77;12.83;;;;;;;;;;5012038;28;20226;-29
2022/11/30 08:17:54;;;;;;;20.80;13.40;;;;;;;;;;5010797;28;20222;-27
2022/11/30 08:20:22;;;;;;;22.77;12.67;;;;;;;;;;5014434;28;20227;-28
2022/11/30 08:22:51;;;;;;;21.47;13.23;;;;;;;;;;5014278;28;20212;-27
2022/11/30 08:25:18;;;;;;;21.30;12.40;;;;;;;;;;5008991;28;20210;-29
2022/11/30 08:27:45;;;;;;;21.17;12.57;;;;;;;;;;5013953;28;20199;-27
2022/11/30 08:30:14;;;;;;;25.77;12.90;;;;;;;;;;5012886;28;20203;-26
2022/11/30 08:32:42;;;;;;;24.17;13.37;;;;;;;;;;5018180;28;20214;-27
2022/11/30 08:35:09;;;;;;;19.80;12.23;;;;;;;;;;5005847;28;20226;-30
2022/11/30 08:37:37;;;;;;;21.87;12.53;;;;;;;;;;5011508;28;20214;-29
2022/11/30 08:40:05;;;;;;;23.47;13.27;;;;;;;;;;5013815;28;20210;-27
2022/11/30 08:42:33;;;;;;;22.33;12.40;;;;;;;;;;5013788;28;20211;-28
2022/11/30 08:45:00;;;;;;;21.73;13.23;;;;;;;;;;5012953;28;20303;-26
2022/11/30 08:47:29;;;;;;;22.13;12.43;;;;;;;;;;5013831;28;20217;-29
2022/11/30 08:49:56;;;;;;;19.57;12.13;;;;;;;;;;5013613;28;20203;-31
2022/11/30 08:52:24;;;;;;;23.07;12.60;;;;;;;;;;5011488;28;20207;-28
2022/11/30 08:54:51;;;;;;;23.53;13.50;;;;;;;;;;5019512;28;20219;-29
2022/11/30 08:57:19;;;;;;;23.70;12.13;;;;;;;;;;5013603;28;20282;-29
2022/11/30 08:59:46;;;;;;;20.40;12.20;;;;;;;;;;5009842;28;20211;-30
2022/11/30 09:02:16;;;;;;;20.63;12.23;;;;;;;;;;5013380;28;20234;-27
2022/11/30 09:04:45;;;;;;;23.50;12.40;;;;;;;;;;5013015;28;20238;-27
2022/11/30 09:07:13;;;;;;;23.07;12.57;;;;;;;;;;5010784;28;20524;-30
2022/11/30 09:09:40;;;;;;;20.13;11.90;;;;;;;;;;5018402;28;20226;-30
2022/11/30 09:12:07;;;;;;;20.80;11.87;;;;;;;;;;5012257;28;20233;-27
2022/11/30 09:14:35;;;;;;;21.93;11.87;;;;;;;;;;5009004;28;20224;-26
2022/11/30 09:17:02;;;;;;;20.70;12.40;;;;;;;;;;5012573;28;20317;-28
2022/11/30 09:19:29;;;;;;;20.47;11.80;;;;;;;;;;5006908;28;20203;-28
2022/11/30 09:21:58;;;;;;;20.17;11.37;;;;;;;;;;5012315;28;20228;-26
2022/11/30 09:24:25;;;;;;;20.33;11.67;;;;;;;;;;5013191;28;20222;-27
2022/11/30 09:26:55;;;;;;;20.13;12.13;;;;;;;;;;5009060;28;20216;-26
2022/11/30 09:29:22;;;;;;;20.47;12.07;;;;;;;;;;5015089;28;20207;-27
2022/11/30 09:31:50;;;;;;;19.77;11.67;;;;;;;;;;5019472;28;20232;-25
2022/11/30 09:34:17;;;;;;;19.27;10.80;;;;;;;;;;5012403;28;20282;-26
2022/11/30 09:36:44;;;;;;;17.80;10.97;;;;;;;;;;5012540;28;20218;-29
2022/11/30 09:39:13;;;;;;;18.97;11.43;;;;;;;;;;5006015;28;20196;-30
2022/11/30 09:41:49;;;;;;;18.77;11.60;;;;;;;;;;5011042;28;20233;-29
2022/11/30 09:44:22;;;;;;;20.17;11.80;;;;;;;;;;5003640;28;20281;-27
2022/11/30 09:46:51;;;;;;;20.60;12.13;;;;;;;;;;5005652;28;20219;-28
2022/11/30 09:49:19;;;;;;;18.27;10.60;;;;;;;;;;5011902;28;20209;-26
2022/11/30 09:51:47;;;;;;;16.07;10.60;;;;;;;;;;5011779;28;20225;-27
2022/11/30 09:54:17;;;;;;;18.23;10.83;;;;;;;;;;5006366;28;20204;-25
2022/11/30 09:56:45;;;;;;;20.23;12.03;;;;;;;;;;5011591;28;20230;-27
2022/11/30 09:59:15;;;;;;;21.03;11.77;;;;;;;;;;5009879;28;20210;-29
2022/11/30 10:01:44;;;;;;;18.50;11.67;;;;;;;;;;5011496;28;20233;-26
2022/11/30 10:04:19;;;;;;;20.10;12.60;;;;;;;;;;5004278;28;20200;-27
2022/11/30 10:06:51;;;;;;;18.67;11.47;;;;;;;;;;5012410;28;20203;-27
2022/11/30 10:09:27;;;;;;;21.77;12.33;;;;;;;;;;5006625;28;20237;-28
2022/11/30 10:12:00;;;;;;;17.67;10.33;;;;;;;;;;5011737;28;20250;-33
2022/11/30 10:14:38;;;;;;;17.30;10.27;;;;;;;;;;5006848;28;20199;-28
2022/11/30 10:17:16;;;;;;;16.10;9.47;;;;;;;;;;5012596;28;20207;-29
2022/11/30 10:19:56;;;;;;;17.23;10.70;;;;;;;;;;5010166;28;20207;-32
2022/11/30 10:22:27;;;;;;;17.30;10.10;;;;;;;;;;5010542;28;20306;-28
2022/11/30 10:25:02;;;;;;;17.77;10.20;;;;;;;;;;5009088;28;20200;-31
2022/11/30 10:27:37;;;;;;;18.30;10.27;;;;;;;;;;5015386;28;20198;-28
2022/11/30 10:30:06;;;;;;;18.37;11.20;;;;;;;;;;5016945;28;20210;-24
2022/11/30 10:32:37;;;;;;;16.97;10.37;;;;;;;;;;5019810;28;20217;-29
2022/11/30 10:35:16;;;;;;;16.97;9.67;;;;;;;;;;5015707;28;20211;-25
2022/11/30 10:37:43;;;;;;;17.27;10.67;;;;;;;;;;5010039;28;20226;-30
2022/11/30 10:40:14;;;;;;;16.20;10.63;;;;;;;;;;5015573;28;20213;-31
2022/11/30 10:42:43;;;;;;;19.93;11.33;;;;;;;;;;5015686;28;20202;-28
2022/11/30 10:45:12;;;;;;;18.73;10.30;;;;;;;;;;5013541;28;20207;-28
2022/11/30 10:47:41;;;;;;;15.53;9.47;;;;;;;;;;5014739;28;20229;-26
2022/11/30 10:50:11;;;;;;;16.07;10.40;;;;;;;;;;5015198;28;20205;-31
2022/11/30 10:52:42;;;;;;;16.57;10.03;;;;;;;;;;5015686;28;20214;-29
2022/11/30 10:55:15;;;;;;;16.83;9.80;;;;;;;;;;5015110;28;20228;-26
2022/11/30 10:57:42;;;;;;;19.27;9.93;;;;;;;;;;5014299;28;20196;-27
2022/11/30 11:00:13;;;;;;;16.90;10.57;;;;;;;;;;5016671;28;20209;-26
2022/11/30 11:02:42;;;;;;;18.37;9.67;;;;;;;;;;5015049;28;20211;-25
2022/11/30 11:05:13;;;;;;;15.80;9.67;;;;;;;;;;5015601;28;20206;-31
2022/11/30 11:07:45;;;;;;;16.17;9.27;;;;;;;;;;5014227;28;20301;-28
2022/11/30 11:10:16;;;;;;;14.37;9.77;;;;;;;;;;5017863;28;20194;-26
2022/11/30 11:12:47;;;;;;;13.73;8.27;;;;;;;;;;5018463;28;20207;-31
2022/11/30 11:15:18;;;;;;;14.83;9.10;;;;;;;;;;5010927;28;20215;-29
2022/11/30 11:17:45;;;;;;;15.50;9.90;;;;;;;;;;5008550;28;20210;-28
2022/11/30 11:20:27;;;;;;;16.00;9.77;;;;;;;;;;5011330;28;20211;-25
2022/11/30 11:22:54;;;;;;;13.80;8.77;;;;;;;;;;5015382;28;20214;-24
2022/11/30 11:25:26;;;;;;;15.63;8.90;;;;;;;;;;5012320;28;20199;-29
2022/11/30 11:27:55;;;;;;;15.40;9.53;;;;;;;;;;5020636;28;20199;-29
2022/11/30 11:30:29;;;;;;;14.47;9.07;;;;;;;;;;5003347;28;20220;-25
2022/11/30 11:33:00;;;;;;;11.97;8.60;;;;;;;;;;5014904;28;20198;-29
2022/11/30 11:35:38;;;;;;;11.93;8.17;;;;;;;;;;5015136;28;20233;-29
2022/11/30 11:38:18;;;;;;;15.27;9.43;;;;;;;;;;5014877;28;20298;-25
2022/11/30 11:40:54;;;;;;;17.57;9.63;;;;;;;;;;5014306;28;20230;-27
2022/11/30 11:43:21;;;;;;;14.97;9.37;;;;;;;;;;5014650;28;20256;-27
2022/11/30 11:45:51;;;;;;;15.90;9.60;;;;;;;;;;5017466;28;20203;-30
2022/11/30 11:48:27;;;;;;;13.40;8.77;;;;;;;;;;5016397;28;20200;-30
2022/11/30 11:50:57;;;;;;;15.37;9.00;;;;;;;;;;5014436;28;20230;-27
2022/11/30 11:53:35;;;;;;;14.97;8.77;;;;;;;;;;5015986;28;20203;-28
2022/11/30 11:56:10;;;;;;;15.77;9.13;;;;;;;;;;5021858;28;20219;-29
2022/11/30 11:58:41;;;;;;;15.20;8.70;;;;;;;;;;5013776;28;20218;-30
2022/11/30 12:01:10;;;;;;;15.70;9.13;;;;;;;;;;5013371;28;20230;-28
2022/11/30 12:03:39;;;;;;;17.37;9.63;;;;;;;;;;5014081;28;20218;-28
2022/11/30 12:06:10;;;;;;;15.37;9.33;;;;;;;;;;5014245;28;20349;-30
2022/11/30 12:08:39;;;;;;;18.07;9.80;;;;;;;;;;5017982;28;20217;-26
2022/11/30 12:11:10;;;;;;;13.00;8.27;;;;;;;;;;5021642;28;20233;-25
2022/11/30 12:13:39;;;;;;;16.37;9.40;;;;;;;;;;5014226;28;20199;-28
2022/11/30 12:16:10;;;;;;;14.80;8.87;;;;;;;;;;5015839;28;20226;-24
2022/11/30 12:18:43;;;;;;;14.80;8.83;;;;;;;;;;5013409;28;20214;-26
2022/11/30 12:21:13;;;;;;;14.90;8.87;;;;;;;;;;4994767;28;20231;-30
2022/11/30 12:23:53;;;;;;;14.97;8.90;;;;;;;;;;5008437;28;20203;-29
2022/11/30 12:26:27;;;;;;;16.77;8.47;;;;;;;;;;5007524;28;20218;-29
2022/11/30 12:29:04;;;;;;;16.60;9.40;;;;;;;;;;5012456;28;20204;-29
2022/11/30 12:31:35;;;;;;;14.53;9.03;;;;;;;;;;5013700;28;20231;-24
2022/11/30 12:34:05;;;;;;;15.73;9.00;;;;;;;;;;5014402;28;20207;-26
2022/11/30 12:36:37;;;;;;;15.50;9.03;;;;;;;;;;5014179;28;20305;-28
2022/11/30 12:39:08;;;;;;;14.87;8.87;;;;;;;;;;5012980;28;20286;-26
2022/11/30 12:41:41;;;;;;;16.43;8.23;;;;;;;;;;5012914;28;20231;-29
2022/11/30 12:44:27;;;;;;;12.63;7.93;;;;;;;;;;5013729;28;20225;-30
2022/11/30 12:46:57;;;;;;;12.90;8.03;;;;;;;;;;5014657;28;20210;-27
2022/11/30 12:49:30;;;;;;;16.20;9.33;;;;;;;;;;5012190;28;20200;-24
2022/11/30 12:52:03;;;;;;;15.23;8.73;;;;;;;;;;5013960;28;20227;-26
2022/11/30 12:54:33;;;;;;;12.47;8.37;;;;;;;;;;5008267;28;20207;-28
2022/11/30 12:57:06;;;;;;;13.67;8.37;;;;;;;;;;5012243;28;20237;-24
2022/11/30 12:59:37;;;;;;;14.20;8.23;;;;;;;;;;5011817;28;20290;-28
2022/11/30 13:02:15;;;;;;;14.40;8.80;;;;;;;;;;5023782;28;20222;-24
2022/11/30 13:04:44;;;;;;;13.13;8.23;;;;;;;;;;5025085;28;20212;-28
2022/11/30 13:07:16;;;;;;;12.63;8.00;;;;;;;;;;5022200;28;20574;-29
2022/11/30 13:09:46;;;;;;;13.60;8.00;;;;;;;;;;5020510;28;20217;-28
2022/11/30 13:14:52;;;;;;;13.70;8.40;;;;;;;;;;5050041;22;20292;-34
2022/11/30 13:17:20;;;;;;;11.30;7.03;;;;;;;;;;5013499;28;20223;-39
2022/11/30 13:19:54;;;;;;;13.70;7.70;;;;;;;;;;5012867;28;20201;-35
2022/11/30 13:22:23;;;;;;;12.40;7.30;;;;;;;;;;5006390;28;20219;-37
2022/11/30 13:24:54;;;;;;;13.07;8.37;;;;;;;;;;5004018;28;20302;-36
2022/11/30 13:27:25;;;;;;;12.87;7.80;;;;;;;;;;5012718;28;20211;-28
2022/11/30 13:30:01;;;;;;;12.00;7.43;;;;;;;;;;5011359;28;20211;-31
2022/11/30 13:32:30;;;;;;;14.93;8.60;;;;;;;;;;5003774;28;20380;-33
2022/11/30 13:35:12;;;;;;;12.47;7.10;;;;;;;;;;5013195;28;20204;-32
2022/11/30 13:37:40;;;;;;;14.20;8.40;;;;;;;;;;5006892;28;20220;-28
2022/11/30 13:40:20;;;;;;;13.93;8.30;;;;;;;;;;5011597;28;20212;-32
2022/11/30 13:42:47;;;;;;;13.70;7.30;;;;;;;;;;5011821;28;20671;-33
2022/11/30 13:45:31;;;;;;;12.20;7.43;;;;;;;;;;5019968;28;20209;-31
2022/11/30 13:47:59;;;;;;;13.10;7.13;;;;;;;;;;5007108;28;20215;-36
2022/11/30 13:50:33;;;;;;;15.03;7.57;;;;;;;;;;5000022;28;20285;-33
2022/11/30 13:53:18;;;;;;;12.83;8.00;;;;;;;;;;5009913;28;20294;-40
2022/11/30 13:55:54;;;;;;;18.30;7.93;;;;;;;;;;5000919;28;20220;-36
2022/11/30 13:58:21;;;;;;;11.87;7.30;;;;;;;;;;4997690;28;20297;-37
2022/11/30 14:01:00;;;;;;;12.47;7.40;;;;;;;;;;5012683;28;20223;-37
2022/11/30 14:03:28;;;;;;;14.07;8.03;;;;;;;;;;5009157;28;20210;-34
2022/11/30 14:05:56;;;;;;;15.83;8.33;;;;;;;;;;5012670;28;20729;-33
2022/11/30 14:08:38;;;;;;;12.00;7.00;;;;;;;;;;5004104;28;20206;-34
2022/11/30 14:11:26;;;;;;;15.97;8.63;;;;;;;;;;5003156;28;20309;-34
2022/11/30 14:13:54;;;;;;;13.50;7.57;;;;;;;;;;5012407;28;20215;-31
2022/11/30 14:16:24;;;;;;;13.33;8.03;;;;;;;;;;5004938;28;20314;-34
2022/11/30 14:18:51;;;;;;;11.33;7.00;;;;;;;;;;5010012;28;20279;-37
2022/11/30 14:21:26;;;;;;;12.00;7.70;;;;;;;;;;4993237;28;20226;-34
2022/11/30 14:23:58;;;;;;;10.57;6.73;;;;;;;;;;5006419;28;20580;-38
2022/11/30 14:26:28;;;;;;;13.67;7.40;;;;;;;;;;5011851;28;20195;-33
2022/11/30 14:28:59;;;;;;;11.40;6.00;;;;;;;;;;5012438;28;20207;-32
2022/11/30 14:31:29;;;;;;;12.13;7.80;;;;;;;;;;5005910;28;20223;-38
2022/11/30 14:33:58;;;;;;;10.97;6.50;;;;;;;;;;5009944;28;20206;-36
2022/11/30 14:36:27;;;;;;;11.93;6.57;;;;;;;;;;5012017;28;20722;-37
2022/11/30 14:38:54;;;;;;;14.73;7.73;;;;;;;;;;4999722;28;20208;-34
2022/11/30 14:41:23;;;;;;;13.17;7.60;;;;;;;;;;5010302;28;20314;-37
2022/11/30 14:44:00;;;;;;;10.43;6.43;;;;;;;;;;5011406;28;20207;-34
2022/11/30 14:46:29;;;;;;;13.40;6.93;;;;;;;;;;5002292;28;20219;-35